createdAt,value
2022-11-05T00:02:27.493Z,100190.52
2022-11-05T00:05:18.179Z,100188.81
2022-11-05T00:08:11.011Z,100188.02
2022-11-05T00:10:43.873Z,100182.63
2022-11-05T00:13:35.340Z,100179.14
2022-11-05T00:16:26.200Z,100176.02
2022-11-05T00:19:07.806Z,100169.11
2022-11-05T00:21:59.207Z,100174.50
2022-11-05T00:24:50.036Z,100163.39
2022-11-05T00:27:22.778Z,100166.97
2022-11-05T00:29:55.750Z,100179.53
2022-11-05T00:32:28.816Z,100177.76
2022-11-05T00:35:03.111Z,100178.75
2022-11-05T00:37:36.791Z,100172.98
2022-11-05T00:40:11.609Z,100171.89
2022-11-05T00:43:02.872Z,100180.58
2022-11-05T00:45:38.123Z,100185.38
2022-11-05T00:48:29.088Z,100190.97
2022-11-05T00:51:02.169Z,100191.39
2022-11-05T00:53:35.387Z,100189.98
2022-11-05T00:56:09.009Z,100191.48
2022-11-05T00:58:41.760Z,100185.98
2022-11-05T01:01:14.904Z,100183.09
2022-11-05T01:03:51.643Z,100179.70
2022-11-05T01:06:22.659Z,100183.60
2022-11-05T01:08:57.487Z,100191.40
2022-11-05T01:11:33.869Z,100185.38
2022-11-05T01:14:11.150Z,100188.59
2022-11-05T01:16:45.785Z,100189.70
2022-11-05T01:19:18.713Z,100185.13
2022-11-05T01:21:51.574Z,100183.92
2022-11-05T01:24:24.585Z,100180.81
2022-11-05T01:26:58.055Z,100178.22
2022-11-05T01:29:31.298Z,100184.71
2022-11-05T01:32:04.487Z,100186.63
2022-11-05T01:34:37.355Z,100185.84
2022-11-05T01:37:11.217Z,100182.73
2022-11-05T01:39:44.202Z,100179.72
2022-11-05T01:42:23.967Z,100188.81
2022-11-05T01:45:00.997Z,100190.53
2022-11-05T01:47:56.683Z,100188.92
2022-11-05T01:50:38.548Z,100198.64
2022-11-05T01:53:19.054Z,100196.14
2022-11-05T01:55:56.893Z,100200.94
2022-11-05T01:58:34.302Z,100203.84
2022-11-05T02:01:07.427Z,100202.02
2022-11-05T02:03:41.079Z,100204.52
2022-11-05T02:06:16.402Z,100203.02
2022-11-05T02:09:04.934Z,100206.80
2022-11-05T02:11:37.883Z,100213.09
2022-11-05T02:14:10.782Z,100222.90
2022-11-05T02:16:49.047Z,100226.39
2022-11-05T02:19:56.155Z,100232.89
2022-11-05T02:22:48.749Z,100231.07
2022-11-05T02:25:42.645Z,100234.86
2022-11-05T02:28:47.361Z,100237.77
2022-11-05T02:31:27.507Z,100237.77
2022-11-05T02:34:17.086Z,100234.58
2022-11-05T02:36:55.188Z,100239.88
2022-11-05T02:39:42.195Z,100238.66
2022-11-05T02:42:32.155Z,100243.07
2022-11-05T02:45:39.682Z,100238.17
2022-11-05T02:48:29.832Z,100243.78
2022-11-05T02:51:34.497Z,100243.16
2022-11-05T02:54:48.903Z,100246.17
2022-11-05T02:57:24.014Z,100248.98
2022-11-05T03:00:05.959Z,100250.87
2022-11-05T03:02:39.474Z,100258.15
2022-11-05T03:05:12.931Z,100252.06
2022-11-05T03:08:02.795Z,100253.77
2022-11-05T03:10:54.964Z,100253.36
2022-11-05T03:13:47.361Z,100256.27
2022-11-05T03:16:42.014Z,100257.97
2022-11-05T03:19:25.860Z,100257.86
2022-11-05T03:22:03.068Z,100261.24
2022-11-05T03:24:40.006Z,100261.66
2022-11-05T03:27:16.316Z,100274.91
2022-11-05T03:29:54.070Z,100271.20
2022-11-05T03:32:29.113Z,100276.30
2022-11-05T03:35:09.844Z,100269.80
2022-11-05T03:37:44.461Z,100273.02
2022-11-05T03:40:19.792Z,100269.72
2022-11-05T03:42:55.594Z,100268.72
2022-11-05T03:45:32.329Z,100274.32
2022-11-05T03:48:06.966Z,100273.59
2022-11-05T03:51:05.549Z,100278.16
2022-11-05T03:53:45.471Z,100276.48
2022-11-05T03:56:25.748Z,100284.17
2022-11-05T03:59:00.104Z,100282.77
2022-11-05T04:01:34.127Z,100290.56
2022-11-05T04:04:10.890Z,100288.63
2022-11-05T04:07:01.906Z,100289.72
2022-11-05T04:09:52.397Z,100298.44
2022-11-05T04:12:43.863Z,100296.62
2022-11-05T04:15:16.882Z,100294.02
2022-11-05T04:17:50.539Z,100304.63
2022-11-05T04:20:41.659Z,100297.95
2022-11-05T04:23:32.237Z,100301.17
2022-11-05T04:26:06.457Z,100301.95
2022-11-05T04:28:56.640Z,100304.03
2022-11-05T04:31:30.276Z,100310.05
2022-11-05T04:34:03.464Z,100316.91
2022-11-05T04:36:36.393Z,100313.53
2022-11-05T04:39:09.434Z,100313.64
2022-11-05T04:41:43.339Z,100316.76
2022-11-05T04:44:17.779Z,100322.55
2022-11-05T04:46:50.532Z,100325.88
2022-11-05T04:49:23.997Z,100320.36
2022-11-05T04:51:57.169Z,100320.66
2022-11-05T04:54:30.130Z,100326.34
2022-11-05T04:57:03.413Z,100333.65
2022-11-05T04:59:36.452Z,100336.25
2022-11-05T05:02:09.568Z,100337.14
2022-11-05T05:04:43.122Z,100341.33
2022-11-05T05:07:16.322Z,100350.65
2022-11-05T05:09:49.937Z,100342.33
2022-11-05T05:12:24.540Z,100348.42
2022-11-05T05:14:57.759Z,100341.55
2022-11-05T05:17:31.312Z,100345.16
2022-11-05T05:20:21.958Z,100348.48
2022-11-05T05:22:57.022Z,100350.79
2022-11-05T05:25:30.865Z,100363.00
2022-11-05T05:28:04.232Z,100369.88
2022-11-05T05:30:37.002Z,100377.30
2022-11-05T05:33:11.061Z,100370.80
2022-11-05T05:35:44.075Z,100373.39
2022-11-05T05:38:16.986Z,100378.97
2022-11-05T05:40:52.863Z,100388.25
2022-11-05T05:43:25.893Z,100387.47
2022-11-05T05:46:00.652Z,100391.70
2022-11-05T05:48:34.358Z,100392.81
2022-11-05T05:51:13.241Z,100397.93
2022-11-05T05:53:47.296Z,100398.67
2022-11-05T05:56:20.849Z,100396.77
2022-11-05T05:58:55.112Z,100400.73
2022-11-05T06:01:28.056Z,100405.45
2022-11-05T06:04:01.598Z,100399.14
2022-11-05T06:06:34.498Z,100403.25
2022-11-05T06:09:07.347Z,100409.23
2022-11-05T06:11:40.175Z,100412.95
2022-11-05T06:14:14.586Z,100406.45
2022-11-05T06:16:46.747Z,100407.83
2022-11-05T06:19:19.555Z,100404.82
2022-11-05T06:21:52.520Z,100412.73
2022-11-05T06:24:25.729Z,100408.67
2022-11-05T06:27:00.098Z,100409.22
2022-11-05T06:29:33.348Z,100416.13
2022-11-05T06:32:06.721Z,100410.05
2022-11-05T06:34:40.914Z,100416.66
2022-11-05T06:37:13.885Z,100414.47
2022-11-05T06:39:47.340Z,100413.69
2022-11-05T06:42:20.678Z,100415.20
2022-11-05T06:44:54.217Z,100414.01
2022-11-05T06:47:27.427Z,100416.22
2022-11-05T06:50:00.608Z,100413.47
2022-11-05T06:52:39.880Z,100407.61
2022-11-05T06:55:09.136Z,100422.61
2022-11-05T06:57:42.374Z,100423.02
2022-11-05T07:00:16.369Z,100432.02
2022-11-05T07:02:49.860Z,100436.91
2022-11-05T07:05:23.568Z,100439.19
2022-11-05T07:07:56.936Z,100445.59
2022-11-05T07:10:30.249Z,100443.97
2022-11-05T07:13:08.046Z,100439.73
2022-11-05T07:15:40.201Z,100446.46
2022-11-05T07:18:13.079Z,100450.27
2022-11-05T07:20:46.129Z,100451.13
2022-11-05T07:23:19.344Z,100455.58
2022-11-05T07:25:52.156Z,100452.42
2022-11-05T07:28:25.207Z,100458.45
2022-11-05T07:31:00.005Z,100453.26
2022-11-05T07:33:36.587Z,100457.48
2022-11-05T07:36:09.692Z,100453.37
2022-11-05T07:38:43.533Z,100453.78
2022-11-05T07:41:16.445Z,100454.71
2022-11-05T07:43:49.677Z,100450.70
2022-11-05T07:46:22.677Z,100446.48
2022-11-05T07:48:55.719Z,100449.70
2022-11-05T07:51:28.790Z,100454.94
2022-11-05T07:54:02.412Z,100458.67
2022-11-05T07:56:35.293Z,100456.06
2022-11-05T07:59:08.525Z,100455.66
2022-11-05T08:01:41.623Z,100458.27
2022-11-05T08:04:14.613Z,100456.44
2022-11-05T08:06:47.821Z,100452.26
2022-11-05T08:09:20.931Z,100457.16
2022-11-05T08:11:59.840Z,100455.15
2022-11-05T08:14:29.970Z,100453.05
2022-11-05T08:17:03.319Z,100446.43
2022-11-05T08:19:37.023Z,100445.83
2022-11-05T08:22:10.437Z,100446.61
2022-11-05T08:24:44.243Z,100451.73
2022-11-05T08:27:17.685Z,100455.23
2022-11-05T08:29:50.559Z,100457.92
2022-11-05T08:32:23.350Z,100458.41
2022-11-05T08:34:56.252Z,100459.69
2022-11-05T08:37:29.749Z,100470.41
2022-11-05T08:40:02.796Z,100465.99
2022-11-05T08:42:35.908Z,100467.83
2022-11-05T08:45:10.309Z,100480.27
2022-11-05T08:47:42.400Z,100482.78
2022-11-05T08:50:15.094Z,100478.86
2022-11-05T08:52:48.440Z,100481.37
2022-11-05T08:55:21.234Z,100475.48
2022-11-05T08:58:01.996Z,100473.45
2022-11-05T09:00:37.823Z,100469.83
2022-11-05T09:03:11.584Z,100467.83
2022-11-05T09:05:44.940Z,100471.11
2022-11-05T09:08:21.027Z,100467.30
2022-11-05T09:10:53.987Z,100480.25
2022-11-05T09:13:27.414Z,100478.84
2022-11-05T09:16:01.063Z,100486.57
2022-11-05T09:18:35.133Z,100465.30
2022-11-05T09:21:08.442Z,100469.89
2022-11-05T09:23:41.334Z,100467.13
2022-11-05T09:26:15.487Z,100476.23
2022-11-05T09:28:49.377Z,100470.69
2022-11-05T09:31:22.314Z,100472.50
2022-11-05T09:33:55.859Z,100474.41
2022-11-05T09:36:28.936Z,100472.06
2022-11-05T09:39:02.624Z,100477.28
2022-11-05T09:41:38.587Z,100475.66
2022-11-05T09:44:27.137Z,100484.37
2022-11-05T09:47:06.845Z,100479.66
2022-11-05T09:49:48.861Z,100477.44
2022-11-05T09:52:24.934Z,100483.36
2022-11-05T09:54:59.100Z,100485.45
2022-11-05T09:57:43.128Z,100482.75
2022-11-05T10:00:18.454Z,100486.77
2022-11-05T10:02:58.017Z,100487.56
2022-11-05T10:05:31.044Z,100493.48
2022-11-05T10:08:06.941Z,100485.48
2022-11-05T10:10:50.193Z,100485.61
2022-11-05T10:13:42.793Z,100487.72
2022-11-05T10:16:34.653Z,100486.83
2022-11-05T10:19:12.428Z,100482.78
2022-11-05T10:22:05.563Z,100479.06
2022-11-05T10:24:22.756Z,100488.70
2022-11-05T10:26:57.298Z,100486.67
2022-11-05T10:29:33.166Z,100495.71
2022-11-05T10:32:07.591Z,100492.50
2022-11-05T10:34:41.535Z,100492.20
2022-11-05T10:37:14.822Z,100491.13
2022-11-05T10:39:47.825Z,100487.02
2022-11-05T10:42:37.517Z,100493.57
2022-11-05T10:45:48.616Z,100486.34
2022-11-05T10:48:38.126Z,100486.22
2022-11-05T10:51:10.510Z,100490.12
2022-11-05T10:54:00.376Z,100490.67
2022-11-05T10:56:38.272Z,100497.12
2022-11-05T10:59:30.094Z,100504.45
2022-11-05T11:02:18.847Z,100508.07
2022-11-05T11:04:58.765Z,100514.41
2022-11-05T11:07:31.646Z,100516.62
2022-11-05T11:10:06.838Z,100516.52
2022-11-05T11:12:41.181Z,100516.52
2022-11-05T11:15:31.656Z,100516.92
2022-11-05T11:18:40.577Z,100519.10
2022-11-05T11:21:27.197Z,100516.20
2022-11-05T11:24:07.521Z,100514.27
2022-11-05T11:26:42.167Z,100509.83
2022-11-05T11:29:25.699Z,100509.61
2022-11-05T11:32:00.238Z,100508.02
2022-11-05T11:34:42.077Z,100511.20
2022-11-05T11:37:28.007Z,100515.66
2022-11-05T11:40:10.151Z,100515.38
2022-11-05T11:42:50.836Z,100510.06
2022-11-05T11:45:40.930Z,100511.47
2022-11-05T11:48:17.813Z,100501.70
2022-11-05T11:50:51.262Z,100513.84
2022-11-05T11:53:35.816Z,100507.48
2022-11-05T11:56:16.239Z,100506.85
2022-11-05T11:58:58.403Z,100512.75
2022-11-05T12:01:54.086Z,100515.87
2022-11-05T12:05:20.424Z,100517.17
2022-11-05T12:07:58.245Z,100522.93
2022-11-05T12:10:47.794Z,100524.47
2022-11-05T12:13:25.901Z,100522.36
2022-11-05T12:16:15.637Z,100526.17
2022-11-05T12:19:03.224Z,100533.83
2022-11-05T12:22:18.435Z,100536.44
2022-11-05T12:25:08.865Z,100535.92
2022-11-05T12:28:09.028Z,100534.32
2022-11-05T12:30:58.502Z,100537.66
2022-11-05T12:33:54.081Z,100542.37
2022-11-05T12:36:54.549Z,100540.86
2022-11-05T12:39:46.801Z,100549.28
2022-11-05T12:42:48.117Z,100549.19
2022-11-05T12:45:48.207Z,100551.69
2022-11-05T12:48:54.854Z,100555.23
2022-11-05T12:51:50.358Z,100559.94
2022-11-05T12:54:46.355Z,100563.55
2022-11-05T12:57:20.507Z,100566.05
2022-11-05T12:59:58.186Z,100567.05
2022-11-05T13:02:55.802Z,100566.86
2022-11-05T13:05:45.505Z,100560.03
2022-11-05T13:08:32.879Z,100573.28
2022-11-05T13:11:45.057Z,100577.09
2022-11-05T13:14:22.457Z,100578.81
2022-11-05T13:17:17.969Z,100576.58
2022-11-05T13:19:59.553Z,100578.30
2022-11-05T13:22:58.424Z,100577.98
2022-11-05T13:25:34.811Z,100576.37
2022-11-05T13:28:30.923Z,100577.47
2022-11-05T13:31:07.294Z,100580.39
2022-11-05T13:33:43.981Z,100584.88
2022-11-05T13:36:54.481Z,100582.07
2022-11-05T13:39:35.479Z,100583.98
2022-11-05T13:42:38.671Z,100586.18
2022-11-05T13:45:46.635Z,100598.01
2022-11-05T13:48:48.495Z,100593.27
2022-11-05T13:51:39.479Z,100597.55
2022-11-05T13:54:34.354Z,100600.92
2022-11-05T13:57:51.116Z,100596.48
2022-11-05T14:00:29.076Z,100604.28
2022-11-05T14:03:05.559Z,100609.06
2022-11-05T14:05:41.878Z,100614.05
2022-11-05T14:08:20.133Z,100614.62
2022-11-05T14:11:08.239Z,100622.22
2022-11-05T14:13:44.021Z,100625.02
2022-11-05T14:16:30.003Z,100627.70
2022-11-05T14:19:32.297Z,100627.48
2022-11-05T14:22:34.644Z,100626.75
2022-11-05T14:25:25.656Z,100623.33
2022-11-05T14:28:00.319Z,100625.83
2022-11-05T14:30:48.017Z,100630.63
2022-11-05T14:33:32.341Z,100637.35
2022-11-05T14:36:25.210Z,100637.16
2022-11-05T14:39:04.452Z,100636.53
2022-11-05T14:41:54.690Z,100641.14
2022-11-05T14:44:28.788Z,100646.35
2022-11-05T14:47:06.090Z,100645.94
2022-11-05T14:49:43.650Z,100646.16
2022-11-05T14:52:18.281Z,100644.19
2022-11-05T14:54:55.958Z,100648.09
2022-11-05T14:57:58.813Z,100649.28
2022-11-05T15:00:38.185Z,100653.86
2022-11-05T15:03:45.372Z,100661.45
2022-11-05T15:06:27.348Z,100668.67
2022-11-05T15:09:20.226Z,100667.14
2022-11-05T15:12:02.681Z,100671.09
2022-11-05T15:14:42.668Z,100671.68
2022-11-05T15:17:27.618Z,100685.66
2022-11-05T15:20:25.583Z,100682.38
2022-11-05T15:23:04.442Z,100691.14
2022-11-05T15:26:08.247Z,100701.39
2022-11-05T15:28:50.881Z,100704.54
2022-11-05T15:31:33.569Z,100706.97
2022-11-05T15:34:29.995Z,100711.72
2022-11-05T15:37:16.906Z,100716.39
2022-11-05T15:39:52.158Z,100726.91
2022-11-05T15:42:28.077Z,100730.45
2022-11-05T15:45:02.415Z,100737.20
2022-11-05T15:47:35.461Z,100736.13
2022-11-05T15:50:14.890Z,100748.23
2022-11-05T15:52:56.719Z,100749.70
2022-11-05T15:55:31.406Z,100761.16
2022-11-05T15:58:10.394Z,100762.50
2022-11-05T16:00:46.358Z,100766.28
2022-11-05T16:03:32.808Z,100767.34
2022-11-05T16:06:08.346Z,100766.69
2022-11-05T16:08:43.592Z,100774.08
2022-11-05T16:11:26.482Z,100773.42
2022-11-05T16:14:18.716Z,100765.11
2022-11-05T16:16:52.216Z,100777.20
2022-11-05T16:19:41.288Z,100779.80
2022-11-05T16:22:14.455Z,100780.09
2022-11-05T16:24:48.977Z,100787.76
2022-11-05T16:27:23.576Z,100795.84
2022-11-05T16:29:57.468Z,100788.70
2022-11-05T16:32:33.516Z,100796.08
2022-11-05T16:35:08.322Z,100794.17
2022-11-05T16:37:49.195Z,100796.65
2022-11-05T16:40:26.445Z,100802.09
2022-11-05T16:43:04.093Z,100801.35
2022-11-05T16:45:41.445Z,100803.42
2022-11-05T16:48:17.216Z,100803.86
2022-11-05T16:50:51.077Z,100813.08
2022-11-05T16:53:24.053Z,100809.61
2022-11-05T16:55:56.890Z,100814.03
2022-11-05T16:58:30.040Z,100810.66
2022-11-05T17:01:09.061Z,100814.31
2022-11-05T17:03:42.442Z,100812.61
2022-11-05T17:06:18.430Z,100805.09
2022-11-05T17:08:52.510Z,100803.12
2022-11-05T17:11:25.654Z,100810.66
2022-11-05T17:13:59.212Z,100812.48
2022-11-05T17:16:32.862Z,100828.09
2022-11-05T17:19:06.096Z,100834.18
2022-11-05T17:21:39.815Z,100841.97
2022-11-05T17:24:13.442Z,100833.69
2022-11-05T17:26:47.048Z,100841.48
2022-11-05T17:29:20.133Z,100843.95
2022-11-05T17:31:53.254Z,100842.52
2022-11-05T17:34:26.353Z,100846.13
2022-11-05T17:36:59.829Z,100849.39
2022-11-05T17:39:33.145Z,100850.04
2022-11-05T17:42:07.156Z,100852.11
2022-11-05T17:44:40.375Z,100863.30
2022-11-05T17:47:13.891Z,100857.98
2022-11-05T17:49:47.585Z,100876.14
2022-11-05T17:52:20.466Z,100877.06
2022-11-05T17:54:53.824Z,100876.41
2022-11-05T17:57:28.241Z,100875.77
2022-11-05T18:00:01.265Z,100879.78
2022-11-05T18:02:36.804Z,100879.25
2022-11-05T18:05:11.360Z,100872.64
2022-11-05T18:07:44.761Z,100873.81
2022-11-05T18:10:18.896Z,100884.33
2022-11-05T18:12:53.901Z,100886.41
2022-11-05T18:15:27.019Z,100887.33
2022-11-05T18:18:01.907Z,100890.06
2022-11-05T18:20:34.921Z,100889.67
2022-11-05T18:23:07.981Z,100885.13
2022-11-05T18:25:43.178Z,100889.03
2022-11-05T18:28:16.757Z,100888.50
2022-11-05T18:30:50.087Z,100891.50
2022-11-05T18:33:23.510Z,100890.20
2022-11-05T18:35:56.703Z,100886.81
2022-11-05T18:38:30.547Z,100890.18
2022-11-05T18:41:08.357Z,100903.81
2022-11-05T18:43:41.676Z,100907.05
2022-11-05T18:46:35.978Z,100902.25
2022-11-05T18:48:49.773Z,100899.80
2022-11-05T18:51:22.873Z,100904.58
2022-11-05T18:53:57.222Z,100907.58
2022-11-05T18:56:30.618Z,100911.83
2022-11-05T18:59:34.490Z,100917.95
2022-11-05T19:01:38.399Z,100926.00
2022-11-05T19:04:12.291Z,100923.62
2022-11-05T19:06:45.169Z,100929.08
2022-11-05T19:09:18.906Z,100924.69
2022-11-05T19:11:52.607Z,100933.88
2022-11-05T19:14:25.886Z,100934.41
2022-11-05T19:17:00.189Z,100944.52
2022-11-05T19:19:33.397Z,100945.41
2022-11-05T19:22:07.989Z,100952.29
2022-11-05T19:24:41.164Z,100949.83
2022-11-05T19:27:14.657Z,100947.23
2022-11-05T19:29:48.646Z,100955.42
2022-11-05T19:32:22.456Z,100957.48
2022-11-05T19:34:55.550Z,100960.83
2022-11-05T19:37:28.712Z,100960.07
2022-11-05T19:40:01.703Z,100958.38
2022-11-05T19:42:34.816Z,100967.58
2022-11-05T19:45:30.845Z,100968.48
2022-11-05T19:47:43.811Z,100970.67
2022-11-05T19:50:16.881Z,100970.17
2022-11-05T19:52:49.962Z,100973.39
2022-11-05T19:55:23.008Z,100967.31
2022-11-05T19:57:58.617Z,100975.85
2022-11-05T20:00:35.807Z,100980.00
2022-11-05T20:03:08.936Z,100976.88
2022-11-05T20:05:42.701Z,100984.52
2022-11-05T20:08:16.000Z,100986.98
2022-11-05T20:10:51.348Z,100989.84
2022-11-05T20:13:24.861Z,101001.23
2022-11-05T20:15:58.336Z,101001.77
2022-11-05T20:18:32.114Z,101002.80
2022-11-05T20:21:09.008Z,101003.20
2022-11-05T20:23:42.563Z,101000.61
2022-11-05T20:26:16.568Z,101007.84
2022-11-05T20:28:49.601Z,101010.08
2022-11-05T20:31:23.000Z,101010.70
2022-11-05T20:33:56.137Z,101011.86
2022-11-05T20:36:29.159Z,101006.80
2022-11-05T20:39:04.349Z,101007.03
2022-11-05T20:41:37.388Z,101006.53
2022-11-05T20:44:10.385Z,101007.30
2022-11-05T20:46:43.445Z,101010.28
2022-11-05T20:49:20.057Z,101013.36
2022-11-05T20:51:51.866Z,101017.11
2022-11-05T20:54:25.503Z,101017.09
2022-11-05T20:56:58.627Z,101013.97
2022-11-05T20:59:31.510Z,101013.35
2022-11-05T21:02:04.492Z,101013.09
2022-11-05T21:04:38.212Z,101022.03
2022-11-05T21:07:11.448Z,101023.33
2022-11-05T21:09:44.618Z,101026.32
2022-11-05T21:12:18.847Z,101025.65
2022-11-05T21:14:52.705Z,101026.72
2022-11-05T21:17:25.558Z,101022.44
2022-11-05T21:19:58.895Z,101022.57
2022-11-05T21:22:32.394Z,101027.36
2022-11-05T21:25:08.007Z,101018.28
2022-11-05T21:27:43.731Z,101021.81
2022-11-05T21:30:16.851Z,101022.17
2022-11-05T21:32:50.284Z,101025.83
2022-11-05T21:35:23.223Z,101022.98
2022-11-05T21:37:56.547Z,101026.45
2022-11-05T21:40:29.838Z,101028.91
2022-11-05T21:43:03.111Z,101029.81
2022-11-05T21:45:37.500Z,101030.74
2022-11-05T21:48:11.823Z,101031.38
2022-11-05T21:51:02.958Z,101030.76
2022-11-05T21:53:53.997Z,101028.70
2022-11-05T21:56:46.515Z,101032.81
2022-11-05T21:59:40.451Z,101032.31
2022-11-05T22:02:16.141Z,101027.75
2022-11-05T22:04:54.302Z,101028.66
2022-11-05T22:07:34.327Z,101028.28
2022-11-05T22:10:16.331Z,101033.08
2022-11-05T22:12:50.266Z,101036.83
2022-11-05T22:15:24.019Z,101039.91
2022-11-05T22:17:57.400Z,101042.75
2022-11-05T22:20:31.114Z,101043.41
2022-11-05T22:23:08.611Z,101046.90
2022-11-05T22:25:39.623Z,101057.01
2022-11-05T22:28:12.994Z,101048.21
2022-11-05T22:30:46.611Z,101053.26
2022-11-05T22:33:20.170Z,101051.20
2022-11-05T22:35:53.455Z,101044.46
2022-11-05T22:38:26.374Z,101047.05
2022-11-05T22:40:59.710Z,101042.41
2022-11-05T22:43:34.644Z,101041.34
2022-11-05T22:46:11.288Z,101045.62
2022-11-05T22:48:45.151Z,101044.05
2022-11-05T22:51:24.735Z,101045.47
2022-11-05T22:53:58.316Z,101053.23
2022-11-05T22:56:33.723Z,101045.86
2022-11-05T22:59:07.668Z,101048.20
2022-11-05T23:01:43.009Z,101060.12
2022-11-05T23:04:16.248Z,101057.39
2022-11-05T23:07:07.615Z,101068.85
2022-11-05T23:09:59.080Z,101068.30
2022-11-05T23:12:38.679Z,101065.48
2022-11-05T23:15:14.254Z,101070.55
2022-11-05T23:18:04.239Z,101066.04
2022-11-05T23:20:56.229Z,101068.11
2022-11-05T23:23:47.459Z,101076.81
2022-11-05T23:26:38.163Z,101071.23
2022-11-05T23:29:12.122Z,101065.30
2022-11-05T23:32:03.445Z,101073.41
2022-11-05T23:34:36.910Z,101073.89
2022-11-05T23:37:27.804Z,101072.73
2022-11-05T23:40:01.366Z,101076.63
2022-11-05T23:42:52.069Z,101075.19
2022-11-05T23:45:42.810Z,101077.78
2022-11-05T23:48:30.259Z,101076.48
2022-11-05T23:51:09.640Z,101075.73
2022-11-05T23:53:43.397Z,101074.91
2022-11-05T23:56:17.557Z,101074.89
2022-11-05T23:58:50.502Z,101073.45
